createdAt,value
2023-03-24T00:13:00.673Z,14.96
2023-03-24T00:28:07.898Z,14.94
2023-03-24T00:43:14.848Z,14.79
2023-03-24T00:58:23.228Z,14.78
2023-03-24T01:13:30.664Z,14.84
2023-03-24T01:28:41.259Z,16.36
2023-03-24T01:43:47.053Z,18.07
2023-03-24T01:58:56.992Z,18.00
2023-03-24T02:14:02.711Z,17.49
2023-03-24T02:29:45.072Z,17.31
2023-03-24T02:44:59.477Z,17.16
2023-03-24T03:00:10.863Z,17.37
2023-03-24T03:15:21.330Z,17.68
2023-03-24T03:30:34.068Z,17.52
2023-03-24T03:45:39.922Z,17.51
2023-03-24T04:00:45.964Z,16.37
2023-03-24T04:15:55.961Z,15.80
2023-03-24T04:31:07.666Z,15.53
2023-03-24T04:46:18.375Z,15.13
2023-03-24T05:01:24.521Z,14.71
2023-03-24T05:16:30.382Z,14.49
2023-03-24T05:31:36.518Z,14.34
2023-03-24T05:46:43.093Z,13.99
2023-03-24T06:01:49.133Z,13.83
2023-03-24T06:16:55.426Z,13.41
2023-03-24T06:32:01.280Z,13.03
2023-03-24T06:47:07.472Z,13.26
2023-03-24T07:02:14.098Z,14.49
2023-03-24T07:17:20.236Z,14.17
2023-03-24T07:32:26.354Z,14.12
2023-03-24T07:47:32.131Z,14.25
2023-03-24T08:02:37.981Z,14.09
2023-03-24T08:17:43.661Z,14.15
2023-03-24T08:32:51.673Z,14.32
2023-03-24T08:47:58.891Z,14.03
2023-03-24T09:03:06.966Z,13.59
2023-03-24T09:18:12.630Z,13.38
2023-03-24T09:33:18.518Z,13.41
2023-03-24T09:48:33.108Z,13.56
2023-03-24T10:03:39.025Z,13.49
2023-03-24T10:18:49.670Z,13.43
2023-03-24T10:33:56.366Z,12.58
2023-03-24T10:49:16.566Z,12.19
2023-03-24T11:04:23.135Z,12.10
2023-03-24T11:19:28.778Z,12.25
2023-03-24T11:34:39.157Z,12.40
2023-03-24T11:49:48.666Z,12.45
2023-03-24T12:05:19.950Z,12.73
2023-03-24T12:20:28.100Z,13.06
2023-03-24T12:35:53.297Z,12.93
2023-03-24T12:51:10.530Z,12.63
2023-03-24T13:06:23.288Z,12.45
2023-03-24T13:21:31.726Z,12.76
2023-03-24T13:36:47.445Z,12.84
2023-03-24T13:51:53.433Z,12.94
2023-03-24T14:07:00.653Z,12.05
2023-03-24T14:22:27.677Z,11.83
2023-03-24T14:37:33.665Z,11.69
2023-03-24T14:52:44.963Z,11.72
2023-03-24T15:08:02.535Z,12.16
2023-03-24T15:23:17.876Z,11.87
2023-03-24T15:38:30.802Z,11.39
2023-03-24T15:53:44.725Z,11.49
2023-03-24T16:08:50.849Z,11.32
2023-03-24T16:23:58.885Z,11.30
2023-03-24T16:39:05.556Z,11.40
2023-03-24T16:54:11.473Z,11.26
2023-03-24T17:09:17.499Z,14.29
2023-03-24T17:24:24.511Z,12.06
2023-03-24T17:39:30.749Z,11.20
2023-03-24T17:54:36.782Z,10.83
2023-03-24T18:09:42.844Z,10.13
2023-03-24T18:24:48.831Z,9.55
2023-03-24T18:39:54.797Z,9.07
2023-03-24T18:55:02.690Z,8.82
2023-03-24T19:10:09.633Z,8.37
2023-03-24T19:25:15.710Z,8.27
2023-03-24T19:40:22.401Z,8.56
2023-03-24T19:55:28.967Z,9.35
2023-03-24T20:10:36.261Z,9.59
2023-03-24T20:25:45.149Z,9.51
2023-03-24T20:41:00.017Z,9.46
2023-03-24T20:56:07.684Z,9.72
2023-03-24T21:11:13.544Z,10.00
2023-03-24T21:26:19.817Z,10.71
2023-03-24T21:41:25.996Z,10.19
2023-03-24T21:56:32.808Z,10.18
2023-03-24T22:11:43.112Z,10.00
2023-03-24T22:26:49.299Z,10.12
2023-03-24T22:41:57.024Z,10.48
2023-03-24T22:57:02.953Z,10.36
2023-03-24T23:12:09.194Z,9.94
2023-03-24T23:27:15.125Z,10.31
2023-03-24T23:42:21.191Z,10.54
2023-03-24T23:57:27.057Z,10.18
